sensor_id;sensor_type;location;lat;lon;timestamp;temperature;humidity
7216;DHT22;3649;48.798;9.798;2023-02-16T00:00:26;6.20;99.90
7216;DHT22;3649;48.798;9.798;2023-02-16T00:02:54;6.10;99.90
7216;DHT22;3649;48.798;9.798;2023-02-16T00:05:29;6.10;99.90
7216;DHT22;3649;48.798;9.798;2023-02-16T00:07:58;6.10;99.90
7216;DHT22;3649;48.798;9.798;2023-02-16T00:10:30;6.10;99.90
7216;DHT22;3649;48.798;9.798;2023-02-16T00:12:58;6.10;99.90
7216;DHT22;3649;48.798;9.798;2023-02-16T00:15:44;6.10;99.90
7216;DHT22;3649;48.798;9.798;2023-02-16T00:18:18;6.00;99.90
7216;DHT22;3649;48.798;9.798;2023-02-16T00:20:46;6.10;99.90
7216;DHT22;3649;48.798;9.798;2023-02-16T00:23:14;6.10;99.90
7216;DHT22;3649;48.798;9.798;2023-02-16T00:25:41;6.10;99.90
7216;DHT22;3649;48.798;9.798;2023-02-16T00:28:18;6.00;99.90
7216;DHT22;3649;48.798;9.798;2023-02-16T00:30:46;6.00;99.90
7216;DHT22;3649;48.798;9.798;2023-02-16T00:33:18;6.00;99.90
7216;DHT22;3649;48.798;9.798;2023-02-16T00:35:46;6.00;99.90
7216;DHT22;3649;48.798;9.798;2023-02-16T00:38:13;6.00;99.90
7216;DHT22;3649;48.798;9.798;2023-02-16T00:40:41;6.00;99.90
7216;DHT22;3649;48.798;9.798;2023-02-16T00:43:20;5.90;99.90
7216;DHT22;3649;48.798;9.798;2023-02-16T00:45:49;5.90;99.90
7216;DHT22;3649;48.798;9.798;2023-02-16T00:48:16;5.90;99.90
7216;DHT22;3649;48.798;9.798;2023-02-16T00:50:42;5.90;99.90
7216;DHT22;3649;48.798;9.798;2023-02-16T00:53:09;6.60;99.90
7216;DHT22;3649;48.798;9.798;2023-02-16T00:55:38;7.10;99.90
7216;DHT22;3649;48.798;9.798;2023-02-16T00:58:10;5.90;99.90
7216;DHT22;3649;48.798;9.798;2023-02-16T01:00:42;5.80;99.90
7216;DHT22;3649;48.798;9.798;2023-02-16T01:03:30;5.80;99.90
7216;DHT22;3649;48.798;9.798;2023-02-16T01:05:57;5.80;99.90
7216;DHT22;3649;48.798;9.798;2023-02-16T01:08:42;5.80;99.90
7216;DHT22;3649;48.798;9.798;2023-02-16T01:11:28;5.70;99.90
7216;DHT22;3649;48.798;9.798;2023-02-16T01:13:55;5.70;99.90
7216;DHT22;3649;48.798;9.798;2023-02-16T01:16:45;5.70;99.90
7216;DHT22;3649;48.798;9.798;2023-02-16T01:19:12;5.70;99.90
7216;DHT22;3649;48.798;9.798;2023-02-16T01:21:38;5.70;99.90
7216;DHT22;3649;48.798;9.798;2023-02-16T01:24:05;5.70;99.90
7216;DHT22;3649;48.798;9.798;2023-02-16T01:26:38;5.70;99.90
7216;DHT22;3649;48.798;9.798;2023-02-16T01:29:05;5.70;99.90
7216;DHT22;3649;48.798;9.798;2023-02-16T01:31:32;5.70;99.90
7216;DHT22;3649;48.798;9.798;2023-02-16T01:33:59;5.70;99.90
7216;DHT22;3649;48.798;9.798;2023-02-16T01:36:33;5.70;99.90
7216;DHT22;3649;48.798;9.798;2023-02-16T01:39:01;5.70;99.90
7216;DHT22;3649;48.798;9.798;2023-02-16T01:44:03;5.60;99.90
7216;DHT22;3649;48.798;9.798;2023-02-16T01:49:18;5.60;99.90
7216;DHT22;3649;48.798;9.798;2023-02-16T01:54:46;5.60;99.90
7216;DHT22;3649;48.798;9.798;2023-02-16T01:57:47;5.50;99.90
7216;DHT22;3649;48.798;9.798;2023-02-16T02:03:10;5.60;99.90
7216;DHT22;3649;48.798;9.798;2023-02-16T02:05:56;5.60;99.90
7216;DHT22;3649;48.798;9.798;2023-02-16T02:08:32;5.60;99.90
7216;DHT22;3649;48.798;9.798;2023-02-16T02:11:16;5.60;99.90
7216;DHT22;3649;48.798;9.798;2023-02-16T02:13:54;5.60;99.90
7216;DHT22;3649;48.798;9.798;2023-02-16T02:16:25;5.60;99.90
7216;DHT22;3649;48.798;9.798;2023-02-16T02:18:53;5.60;99.90
7216;DHT22;3649;48.798;9.798;2023-02-16T02:27:51;5.50;99.90
7216;DHT22;3649;48.798;9.798;2023-02-16T02:30:36;5.50;99.90
7216;DHT22;3649;48.798;9.798;2023-02-16T02:33:25;5.40;99.90
7216;DHT22;3649;48.798;9.798;2023-02-16T02:41:50;5.40;99.90
7216;DHT22;3649;48.798;9.798;2023-02-16T02:44:46;5.40;99.90
7216;DHT22;3649;48.798;9.798;2023-02-16T02:47:14;5.30;99.90
7216;DHT22;3649;48.798;9.798;2023-02-16T02:49:51;5.40;99.90
7216;DHT22;3649;48.798;9.798;2023-02-16T02:52:19;5.40;99.90
7216;DHT22;3649;48.798;9.798;2023-02-16T02:54:48;5.40;99.90
7216;DHT22;3649;48.798;9.798;2023-02-16T02:57:38;5.30;99.90
7216;DHT22;3649;48.798;9.798;2023-02-16T03:00:40;5.30;99.90
7216;DHT22;3649;48.798;9.798;2023-02-16T03:03:32;5.30;99.90
7216;DHT22;3649;48.798;9.798;2023-02-16T03:06:06;5.30;99.90
7216;DHT22;3649;48.798;9.798;2023-02-16T03:08:38;5.30;99.90
7216;DHT22;3649;48.798;9.798;2023-02-16T03:11:19;5.20;99.90
7216;DHT22;3649;48.798;9.798;2023-02-16T03:14:18;5.20;99.90
7216;DHT22;3649;48.798;9.798;2023-02-16T03:16:52;5.10;99.90
7216;DHT22;3649;48.798;9.798;2023-02-16T03:19:40;5.10;99.90
7216;DHT22;3649;48.798;9.798;2023-02-16T03:22:27;5.20;99.90
7216;DHT22;3649;48.798;9.798;2023-02-16T03:25:13;5.10;99.90
7216;DHT22;3649;48.798;9.798;2023-02-16T03:28:02;5.10;99.90
7216;DHT22;3649;48.798;9.798;2023-02-16T03:30:50;5.00;99.90
7216;DHT22;3649;48.798;9.798;2023-02-16T03:33:18;5.00;99.90
7216;DHT22;3649;48.798;9.798;2023-02-16T03:35:46;5.10;99.90
7216;DHT22;3649;48.798;9.798;2023-02-16T03:38:13;5.10;99.90
7216;DHT22;3649;48.798;9.798;2023-02-16T03:40:41;5.20;99.90
7216;DHT22;3649;48.798;9.798;2023-02-16T03:43:08;5.20;99.90
7216;DHT22;3649;48.798;9.798;2023-02-16T03:45:40;5.20;99.90
7216;DHT22;3649;48.798;9.798;2023-02-16T03:48:08;5.20;99.90
7216;DHT22;3649;48.798;9.798;2023-02-16T03:50:35;5.20;99.90
7216;DHT22;3649;48.798;9.798;2023-02-16T03:53:02;5.10;99.90
7216;DHT22;3649;48.798;9.798;2023-02-16T03:55:38;5.20;99.90
7216;DHT22;3649;48.798;9.798;2023-02-16T03:58:08;5.20;99.90
7216;DHT22;3649;48.798;9.798;2023-02-16T04:00:35;5.20;99.90
7216;DHT22;3649;48.798;9.798;2023-02-16T04:03:03;5.20;99.90
7216;DHT22;3649;48.798;9.798;2023-02-16T04:05:31;5.20;99.90
7216;DHT22;3649;48.798;9.798;2023-02-16T04:07:58;5.10;99.90
7216;DHT22;3649;48.798;9.798;2023-02-16T04:10:25;5.10;99.90
7216;DHT22;3649;48.798;9.798;2023-02-16T04:12:52;5.10;99.90
7216;DHT22;3649;48.798;9.798;2023-02-16T04:15:21;5.10;99.90
7216;DHT22;3649;48.798;9.798;2023-02-16T04:17:48;5.00;99.90
7216;DHT22;3649;48.798;9.798;2023-02-16T04:20:18;5.00;99.90
7216;DHT22;3649;48.798;9.798;2023-02-16T04:22:46;5.10;99.90
7216;DHT22;3649;48.798;9.798;2023-02-16T04:25:13;5.00;99.90
7216;DHT22;3649;48.798;9.798;2023-02-16T04:27:41;5.10;99.90
7216;DHT22;3649;48.798;9.798;2023-02-16T04:30:13;5.50;99.90
7216;DHT22;3649;48.798;9.798;2023-02-16T04:32:41;5.10;99.90
7216;DHT22;3649;48.798;9.798;2023-02-16T04:35:08;5.10;99.90
7216;DHT22;3649;48.798;9.798;2023-02-16T04:37:35;5.10;99.90
7216;DHT22;3649;48.798;9.798;2023-02-16T04:40:02;5.00;99.90
7216;DHT22;3649;48.798;9.798;2023-02-16T04:42:29;5.00;99.90
7216;DHT22;3649;48.798;9.798;2023-02-16T04:44:56;5.00;99.90
7216;DHT22;3649;48.798;9.798;2023-02-16T04:47:23;4.90;99.90
7216;DHT22;3649;48.798;9.798;2023-02-16T04:49:52;5.00;99.90
7216;DHT22;3649;48.798;9.798;2023-02-16T04:52:20;5.10;99.90
7216;DHT22;3649;48.798;9.798;2023-02-16T04:54:46;5.10;99.90
7216;DHT22;3649;48.798;9.798;2023-02-16T04:57:14;5.00;99.90
7216;DHT22;3649;48.798;9.798;2023-02-16T04:59:41;4.90;99.90
7216;DHT22;3649;48.798;9.798;2023-02-16T05:02:07;4.90;99.90
7216;DHT22;3649;48.798;9.798;2023-02-16T05:04:34;4.90;99.90
7216;DHT22;3649;48.798;9.798;2023-02-16T05:07:01;4.90;99.90
7216;DHT22;3649;48.798;9.798;2023-02-16T05:09:28;4.90;99.90
7216;DHT22;3649;48.798;9.798;2023-02-16T05:11:55;4.90;99.90
7216;DHT22;3649;48.798;9.798;2023-02-16T05:14:40;5.00;99.90
7216;DHT22;3649;48.798;9.798;2023-02-16T05:17:14;5.00;99.90
7216;DHT22;3649;48.798;9.798;2023-02-16T05:19:44;5.00;99.90
7216;DHT22;3649;48.798;9.798;2023-02-16T05:22:11;5.00;99.90
7216;DHT22;3649;48.798;9.798;2023-02-16T05:24:39;5.00;99.90
7216;DHT22;3649;48.798;9.798;2023-02-16T05:27:09;5.00;99.90
7216;DHT22;3649;48.798;9.798;2023-02-16T05:29:37;4.90;99.90
7216;DHT22;3649;48.798;9.798;2023-02-16T05:32:04;4.90;99.90
7216;DHT22;3649;48.798;9.798;2023-02-16T05:34:32;4.90;99.90
7216;DHT22;3649;48.798;9.798;2023-02-16T05:36:58;4.90;99.90
7216;DHT22;3649;48.798;9.798;2023-02-16T05:39:25;4.90;99.90
7216;DHT22;3649;48.798;9.798;2023-02-16T05:41:52;4.90;99.90
7216;DHT22;3649;48.798;9.798;2023-02-16T05:44:20;6.60;99.90
7216;DHT22;3649;48.798;9.798;2023-02-16T05:46:47;4.90;99.90
7216;DHT22;3649;48.798;9.798;2023-02-16T05:49:14;5.00;99.90
7216;DHT22;3649;48.798;9.798;2023-02-16T05:51:41;5.00;99.90
7216;DHT22;3649;48.798;9.798;2023-02-16T05:54:09;5.00;99.90
7216;DHT22;3649;48.798;9.798;2023-02-16T05:56:44;5.00;99.90
7216;DHT22;3649;48.798;9.798;2023-02-16T05:59:12;4.90;99.90
7216;DHT22;3649;48.798;9.798;2023-02-16T06:01:39;4.90;99.90
7216;DHT22;3649;48.798;9.798;2023-02-16T06:04:11;4.90;99.90
7216;DHT22;3649;48.798;9.798;2023-02-16T06:06:38;4.90;99.90
7216;DHT22;3649;48.798;9.798;2023-02-16T06:09:07;4.90;99.90
7216;DHT22;3649;48.798;9.798;2023-02-16T06:11:34;4.90;99.90
7216;DHT22;3649;48.798;9.798;2023-02-16T06:16:34;4.90;99.90
7216;DHT22;3649;48.798;9.798;2023-02-16T06:19:02;4.90;99.90
7216;DHT22;3649;48.798;9.798;2023-02-16T06:21:29;4.70;99.90
7216;DHT22;3649;48.798;9.798;2023-02-16T06:23:56;4.80;99.90
7216;DHT22;3649;48.798;9.798;2023-02-16T06:26:24;4.80;99.90
7216;DHT22;3649;48.798;9.798;2023-02-16T06:28:51;4.80;99.90
7216;DHT22;3649;48.798;9.798;2023-02-16T06:31:19;4.80;99.90
7216;DHT22;3649;48.798;9.798;2023-02-16T06:33:46;4.80;99.90
7216;DHT22;3649;48.798;9.798;2023-02-16T06:36:13;4.80;99.90
7216;DHT22;3649;48.798;9.798;2023-02-16T06:38:41;4.80;99.90
7216;DHT22;3649;48.798;9.798;2023-02-16T06:41:08;4.80;99.90
7216;DHT22;3649;48.798;9.798;2023-02-16T06:43:35;4.80;99.90
7216;DHT22;3649;48.798;9.798;2023-02-16T06:46:02;6.60;99.90
7216;DHT22;3649;48.798;9.798;2023-02-16T06:48:29;4.80;99.90
7216;DHT22;3649;48.798;9.798;2023-02-16T06:50:56;4.80;99.90
7216;DHT22;3649;48.798;9.798;2023-02-16T06:53:22;6.60;99.90
7216;DHT22;3649;48.798;9.798;2023-02-16T06:55:51;4.90;99.90
7216;DHT22;3649;48.798;9.798;2023-02-16T06:58:18;4.90;99.90
7216;DHT22;3649;48.798;9.798;2023-02-16T07:00:44;4.90;99.90
7216;DHT22;3649;48.798;9.798;2023-02-16T07:03:11;4.90;99.90
7216;DHT22;3649;48.798;9.798;2023-02-16T07:05:38;4.90;99.90
7216;DHT22;3649;48.798;9.798;2023-02-16T07:08:06;4.80;99.90
7216;DHT22;3649;48.798;9.798;2023-02-16T07:10:33;4.80;99.90
7216;DHT22;3649;48.798;9.798;2023-02-16T07:13:15;4.70;99.90
7216;DHT22;3649;48.798;9.798;2023-02-16T07:15:42;4.80;99.90
7216;DHT22;3649;48.798;9.798;2023-02-16T07:18:09;4.70;99.90
7216;DHT22;3649;48.798;9.798;2023-02-16T07:20:35;4.70;99.90
7216;DHT22;3649;48.798;9.798;2023-02-16T07:23:03;4.70;99.90
7216;DHT22;3649;48.798;9.798;2023-02-16T07:25:30;4.80;99.90
7216;DHT22;3649;48.798;9.798;2023-02-16T07:27:57;4.70;99.90
7216;DHT22;3649;48.798;9.798;2023-02-16T07:30:24;4.70;99.90
7216;DHT22;3649;48.798;9.798;2023-02-16T07:32:51;4.70;99.90
7216;DHT22;3649;48.798;9.798;2023-02-16T07:35:18;4.80;99.90
7216;DHT22;3649;48.798;9.798;2023-02-16T07:37:45;4.80;99.90
7216;DHT22;3649;48.798;9.798;2023-02-16T07:40:12;4.80;99.90
7216;DHT22;3649;48.798;9.798;2023-02-16T07:42:39;4.90;99.90
7216;DHT22;3649;48.798;9.798;2023-02-16T07:45:06;4.70;99.90
7216;DHT22;3649;48.798;9.798;2023-02-16T07:47:33;4.90;99.90
7216;DHT22;3649;48.798;9.798;2023-02-16T07:50:00;5.00;99.90
7216;DHT22;3649;48.798;9.798;2023-02-16T07:52:27;5.10;99.90
7216;DHT22;3649;48.798;9.798;2023-02-16T07:54:57;5.10;99.90
7216;DHT22;3649;48.798;9.798;2023-02-16T07:57:28;5.20;99.90
7216;DHT22;3649;48.798;9.798;2023-02-16T07:59:55;5.20;99.90
7216;DHT22;3649;48.798;9.798;2023-02-16T08:02:22;5.20;99.90
7216;DHT22;3649;48.798;9.798;2023-02-16T08:04:50;5.50;99.90
7216;DHT22;3649;48.798;9.798;2023-02-16T08:07:20;5.20;99.90
7216;DHT22;3649;48.798;9.798;2023-02-16T08:09:48;5.40;99.90
7216;DHT22;3649;48.798;9.798;2023-02-16T08:12:16;5.50;99.90
7216;DHT22;3649;48.798;9.798;2023-02-16T08:14:43;5.30;99.90
7216;DHT22;3649;48.798;9.798;2023-02-16T08:17:13;5.40;99.90
7216;DHT22;3649;48.798;9.798;2023-02-16T08:19:40;5.50;99.90
7216;DHT22;3649;48.798;9.798;2023-02-16T08:22:08;5.60;99.90
7216;DHT22;3649;48.798;9.798;2023-02-16T08:24:35;5.70;99.90
7216;DHT22;3649;48.798;9.798;2023-02-16T08:27:04;5.90;99.90
7216;DHT22;3649;48.798;9.798;2023-02-16T08:29:32;5.90;99.90
7216;DHT22;3649;48.798;9.798;2023-02-16T08:31:59;6.00;99.90
7216;DHT22;3649;48.798;9.798;2023-02-16T08:34:28;6.10;99.90
7216;DHT22;3649;48.798;9.798;2023-02-16T08:36:56;6.20;99.90
7216;DHT22;3649;48.798;9.798;2023-02-16T08:39:25;6.20;99.90
7216;DHT22;3649;48.798;9.798;2023-02-16T08:41:54;6.20;99.90
7216;DHT22;3649;48.798;9.798;2023-02-16T08:44:23;6.30;99.90
7216;DHT22;3649;48.798;9.798;2023-02-16T08:46:52;6.40;99.90
7216;DHT22;3649;48.798;9.798;2023-02-16T08:49:21;6.50;99.90
7216;DHT22;3649;48.798;9.798;2023-02-16T08:51:52;6.60;99.90
7216;DHT22;3649;48.798;9.798;2023-02-16T08:54:25;7.10;99.90
7216;DHT22;3649;48.798;9.798;2023-02-16T08:56:55;7.80;99.90
7216;DHT22;3649;48.798;9.798;2023-02-16T08:59:23;6.70;99.90
7216;DHT22;3649;48.798;9.798;2023-02-16T09:01:54;6.80;99.90
7216;DHT22;3649;48.798;9.798;2023-02-16T09:04:21;6.90;99.90
7216;DHT22;3649;48.798;9.798;2023-02-16T09:06:48;7.00;99.90
7216;DHT22;3649;48.798;9.798;2023-02-16T09:09:16;7.20;99.90
7216;DHT22;3649;48.798;9.798;2023-02-16T09:11:43;7.20;99.90
7216;DHT22;3649;48.798;9.798;2023-02-16T09:14:11;7.30;99.90
7216;DHT22;3649;48.798;9.798;2023-02-16T09:16:38;7.40;99.90
7216;DHT22;3649;48.798;9.798;2023-02-16T09:19:12;7.50;99.90
7216;DHT22;3649;48.798;9.798;2023-02-16T09:21:41;7.50;99.90
7216;DHT22;3649;48.798;9.798;2023-02-16T09:24:08;7.50;99.90
7216;DHT22;3649;48.798;9.798;2023-02-16T09:26:37;7.70;99.90
7216;DHT22;3649;48.798;9.798;2023-02-16T09:29:09;7.80;99.90
7216;DHT22;3649;48.798;9.798;2023-02-16T09:31:36;7.70;99.90
7216;DHT22;3649;48.798;9.798;2023-02-16T09:34:22;7.90;99.90
7216;DHT22;3649;48.798;9.798;2023-02-16T09:36:49;7.90;99.90
7216;DHT22;3649;48.798;9.798;2023-02-16T09:39:16;7.90;99.90
7216;DHT22;3649;48.798;9.798;2023-02-16T09:47:02;8.10;99.90
7216;DHT22;3649;48.798;9.798;2023-02-16T09:49:41;8.20;99.90
7216;DHT22;3649;48.798;9.798;2023-02-16T09:54:51;8.20;99.90
7216;DHT22;3649;48.798;9.798;2023-02-16T10:00:22;8.30;99.90
7216;DHT22;3649;48.798;9.798;2023-02-16T10:02:58;8.40;99.90
7216;DHT22;3649;48.798;9.798;2023-02-16T10:05:40;8.50;99.90
7216;DHT22;3649;48.798;9.798;2023-02-16T10:08:13;8.10;99.90
7216;DHT22;3649;48.798;9.798;2023-02-16T10:11:18;8.80;99.90
7216;DHT22;3649;48.798;9.798;2023-02-16T10:17:24;9.20;99.90
7216;DHT22;3649;48.798;9.798;2023-02-16T10:19:58;9.30;99.90
7216;DHT22;3649;48.798;9.798;2023-02-16T10:22:33;10.00;99.90
7216;DHT22;3649;48.798;9.798;2023-02-16T10:25:10;9.50;99.90
7216;DHT22;3649;48.798;9.798;2023-02-16T10:27:40;9.70;99.90
7216;DHT22;3649;48.798;9.798;2023-02-16T10:30:16;9.70;99.90
7216;DHT22;3649;48.798;9.798;2023-02-16T10:35:31;9.90;99.90
7216;DHT22;3649;48.798;9.798;2023-02-16T10:46:07;10.20;99.90
7216;DHT22;3649;48.798;9.798;2023-02-16T10:48:36;10.30;99.90
7216;DHT22;3649;48.798;9.798;2023-02-16T10:51:15;11.80;99.90
7216;DHT22;3649;48.798;9.798;2023-02-16T10:53:47;10.50;99.90
7216;DHT22;3649;48.798;9.798;2023-02-16T10:56:37;10.50;99.90
7216;DHT22;3649;48.798;9.798;2023-02-16T10:59:14;10.60;99.90
7216;DHT22;3649;48.798;9.798;2023-02-16T11:01:44;10.70;99.90
7216;DHT22;3649;48.798;9.798;2023-02-16T11:07:15;10.90;99.90
7216;DHT22;3649;48.798;9.798;2023-02-16T11:09:45;10.90;99.90
7216;DHT22;3649;48.798;9.798;2023-02-16T11:17:50;11.00;99.90
7216;DHT22;3649;48.798;9.798;2023-02-16T11:20:54;11.00;99.90
7216;DHT22;3649;48.798;9.798;2023-02-16T11:23:35;11.10;99.90
7216;DHT22;3649;48.798;9.798;2023-02-16T11:31:12;11.30;99.90
7216;DHT22;3649;48.798;9.798;2023-02-16T11:33:43;11.30;99.90
7216;DHT22;3649;48.798;9.798;2023-02-16T11:39:00;11.40;99.90
7216;DHT22;3649;48.798;9.798;2023-02-16T11:41:28;11.60;99.90
7216;DHT22;3649;48.798;9.798;2023-02-16T11:43:55;11.50;99.90
7216;DHT22;3649;48.798;9.798;2023-02-16T11:46:23;11.50;99.90
7216;DHT22;3649;48.798;9.798;2023-02-16T11:48:50;12.20;99.90
7216;DHT22;3649;48.798;9.798;2023-02-16T11:51:33;11.70;99.90
7216;DHT22;3649;48.798;9.798;2023-02-16T11:54:04;11.90;99.80
7216;DHT22;3649;48.798;9.798;2023-02-16T11:56:33;11.90;99.90
7216;DHT22;3649;48.798;9.798;2023-02-16T12:19:45;12.10;99.90
7216;DHT22;3649;48.798;9.798;2023-02-16T12:24:49;12.10;99.90
7216;DHT22;3649;48.798;9.798;2023-02-16T12:27:34;12.10;99.90
7216;DHT22;3649;48.798;9.798;2023-02-16T12:35:52;12.00;99.90
7216;DHT22;3649;48.798;9.798;2023-02-16T12:41:15;12.10;99.90
7216;DHT22;3649;48.798;9.798;2023-02-16T12:43:54;12.10;99.90
7216;DHT22;3649;48.798;9.798;2023-02-16T12:46:49;12.20;99.90
7216;DHT22;3649;48.798;9.798;2023-02-16T12:49:24;12.10;99.90
7216;DHT22;3649;48.798;9.798;2023-02-16T12:52:03;12.20;99.90
7216;DHT22;3649;48.798;9.798;2023-02-16T12:54:46;12.20;99.90
7216;DHT22;3649;48.798;9.798;2023-02-16T12:57:20;12.30;99.90
7216;DHT22;3649;48.798;9.798;2023-02-16T13:02:37;12.40;99.90
7216;DHT22;3649;48.798;9.798;2023-02-16T13:05:18;12.40;99.90
7216;DHT22;3649;48.798;9.798;2023-02-16T13:07:50;12.50;99.90
7216;DHT22;3649;48.798;9.798;2023-02-16T13:13:15;12.50;99.90
7216;DHT22;3649;48.798;9.798;2023-02-16T13:16:14;12.50;99.90
7216;DHT22;3649;48.798;9.798;2023-02-16T13:18:55;13.30;99.90
7216;DHT22;3649;48.798;9.798;2023-02-16T13:21:43;12.50;99.90
7216;DHT22;3649;48.798;9.798;2023-02-16T13:24:49;12.60;99.90
7216;DHT22;3649;48.798;9.798;2023-02-16T13:30:40;12.60;99.90
7216;DHT22;3649;48.798;9.798;2023-02-16T13:33:41;12.60;99.90
7216;DHT22;3649;48.798;9.798;2023-02-16T13:36:33;12.70;99.90
7216;DHT22;3649;48.798;9.798;2023-02-16T13:42:04;12.70;99.90
7216;DHT22;3649;48.798;9.798;2023-02-16T13:44:45;12.60;99.90
7216;DHT22;3649;48.798;9.798;2023-02-16T13:47:17;12.70;99.90
7216;DHT22;3649;48.798;9.798;2023-02-16T13:49:46;12.70;99.90
7216;DHT22;3649;48.798;9.798;2023-02-16T13:52:35;12.70;99.90
7216;DHT22;3649;48.798;9.798;2023-02-16T13:55:06;12.60;99.90
7216;DHT22;3649;48.798;9.798;2023-02-16T13:57:53;12.60;99.90
7216;DHT22;3649;48.798;9.798;2023-02-16T14:05:44;12.70;99.90
7216;DHT22;3649;48.798;9.798;2023-02-16T14:08:26;12.70;99.90
7216;DHT22;3649;48.798;9.798;2023-02-16T14:10:55;12.70;99.90
7216;DHT22;3649;48.798;9.798;2023-02-16T14:13:30;12.70;99.90
7216;DHT22;3649;48.798;9.798;2023-02-16T14:21:43;12.70;99.90
7216;DHT22;3649;48.798;9.798;2023-02-16T14:24:22;12.60;99.90
7216;DHT22;3649;48.798;9.798;2023-02-16T14:26:57;13.00;99.90
7216;DHT22;3649;48.798;9.798;2023-02-16T14:34:29;12.70;99.90
7216;DHT22;3649;48.798;9.798;2023-02-16T14:37:10;12.60;99.90
7216;DHT22;3649;48.798;9.798;2023-02-16T14:39:50;12.60;99.90
7216;DHT22;3649;48.798;9.798;2023-02-16T14:42:34;12.60;99.90
7216;DHT22;3649;48.798;9.798;2023-02-16T14:48:22;12.60;99.90
7216;DHT22;3649;48.798;9.798;2023-02-16T14:51:27;12.50;99.90
7216;DHT22;3649;48.798;9.798;2023-02-16T14:59:53;12.50;99.90
7216;DHT22;3649;48.798;9.798;2023-02-16T15:02:40;12.40;99.90
7216;DHT22;3649;48.798;9.798;2023-02-16T15:05:25;12.40;99.90
7216;DHT22;3649;48.798;9.798;2023-02-16T15:10:44;12.30;99.90
7216;DHT22;3649;48.798;9.798;2023-02-16T15:13:20;12.20;99.90
7216;DHT22;3649;48.798;9.798;2023-02-16T15:15:50;12.20;99.90
7216;DHT22;3649;48.798;9.798;2023-02-16T15:18:21;12.20;99.90
7216;DHT22;3649;48.798;9.798;2023-02-16T15:20:51;12.50;99.90
7216;DHT22;3649;48.798;9.798;2023-02-16T15:23:24;12.20;99.90
7216;DHT22;3649;48.798;9.798;2023-02-16T15:26:02;12.10;99.90
7216;DHT22;3649;48.798;9.798;2023-02-16T15:28:35;12.10;99.90
7216;DHT22;3649;48.798;9.798;2023-02-16T15:31:12;12.30;99.90
7216;DHT22;3649;48.798;9.798;2023-02-16T15:33:58;12.10;99.90
7216;DHT22;3649;48.798;9.798;2023-02-16T15:36:34;12.10;99.90
7216;DHT22;3649;48.798;9.798;2023-02-16T15:39:07;12.10;99.90
7216;DHT22;3649;48.798;9.798;2023-02-16T15:41:40;12.00;99.90
7216;DHT22;3649;48.798;9.798;2023-02-16T15:47:21;12.20;99.90
7216;DHT22;3649;48.798;9.798;2023-02-16T15:49:48;12.00;99.90
7216;DHT22;3649;48.798;9.798;2023-02-16T15:52:25;12.00;99.90
7216;DHT22;3649;48.798;9.798;2023-02-16T15:54:54;12.10;99.90
7216;DHT22;3649;48.798;9.798;2023-02-16T15:57:29;12.70;99.90
7216;DHT22;3649;48.798;9.798;2023-02-16T16:00:04;12.20;99.90
7216;DHT22;3649;48.798;9.798;2023-02-16T16:02:40;12.20;99.90
7216;DHT22;3649;48.798;9.798;2023-02-16T16:07:48;12.30;99.90
7216;DHT22;3649;48.798;9.798;2023-02-16T16:10:30;12.10;99.90
7216;DHT22;3649;48.798;9.798;2023-02-16T16:13:01;12.10;99.90
7216;DHT22;3649;48.798;9.798;2023-02-16T16:15:30;12.10;99.90
7216;DHT22;3649;48.798;9.798;2023-02-16T16:17:59;12.10;99.90
7216;DHT22;3649;48.798;9.798;2023-02-16T16:20:30;12.00;99.90
7216;DHT22;3649;48.798;9.798;2023-02-16T16:23:03;12.10;99.90
7216;DHT22;3649;48.798;9.798;2023-02-16T16:28:06;12.00;99.90
7216;DHT22;3649;48.798;9.798;2023-02-16T16:30:35;12.10;99.90
7216;DHT22;3649;48.798;9.798;2023-02-16T16:33:05;12.00;99.90
7216;DHT22;3649;48.798;9.798;2023-02-16T16:35:47;12.00;99.90
7216;DHT22;3649;48.798;9.798;2023-02-16T16:38:24;11.90;99.90
7216;DHT22;3649;48.798;9.798;2023-02-16T16:40:57;11.90;99.90
7216;DHT22;3649;48.798;9.798;2023-02-16T16:43:29;11.90;99.90
7216;DHT22;3649;48.798;9.798;2023-02-16T16:46:20;11.90;99.90
7216;DHT22;3649;48.798;9.798;2023-02-16T16:48:53;11.90;99.90
7216;DHT22;3649;48.798;9.798;2023-02-16T16:54:04;11.80;99.90
7216;DHT22;3649;48.798;9.798;2023-02-16T16:56:38;11.80;99.90
7216;DHT22;3649;48.798;9.798;2023-02-16T16:59:05;11.80;99.90
7216;DHT22;3649;48.798;9.798;2023-02-16T17:01:32;11.80;99.90
7216;DHT22;3649;48.798;9.798;2023-02-16T17:03:59;11.80;99.90
7216;DHT22;3649;48.798;9.798;2023-02-16T17:06:26;11.80;99.90
7216;DHT22;3649;48.798;9.798;2023-02-16T17:08:53;11.80;99.90
7216;DHT22;3649;48.798;9.798;2023-02-16T17:11:26;11.90;99.90
7216;DHT22;3649;48.798;9.798;2023-02-16T17:13:54;11.80;99.90
7216;DHT22;3649;48.798;9.798;2023-02-16T17:16:30;11.80;99.90
7216;DHT22;3649;48.798;9.798;2023-02-16T17:18:57;11.80;99.90
7216;DHT22;3649;48.798;9.798;2023-02-16T17:21:24;11.70;99.90
7216;DHT22;3649;48.798;9.798;2023-02-16T17:23:51;11.80;99.90
7216;DHT22;3649;48.798;9.798;2023-02-16T17:26:20;11.70;99.90
7216;DHT22;3649;48.798;9.798;2023-02-16T17:28:47;11.70;99.90
7216;DHT22;3649;48.798;9.798;2023-02-16T17:31:14;11.70;99.90
7216;DHT22;3649;48.798;9.798;2023-02-16T17:33:41;11.70;99.90
7216;DHT22;3649;48.798;9.798;2023-02-16T17:36:12;11.70;99.90
7216;DHT22;3649;48.798;9.798;2023-02-16T17:38:40;11.70;99.90
7216;DHT22;3649;48.798;9.798;2023-02-16T17:41:19;11.70;99.90
7216;DHT22;3649;48.798;9.798;2023-02-16T17:43:47;11.70;99.90
7216;DHT22;3649;48.798;9.798;2023-02-16T17:46:15;11.70;99.90
7216;DHT22;3649;48.798;9.798;2023-02-16T17:48:42;11.80;99.90
7216;DHT22;3649;48.798;9.798;2023-02-16T17:51:15;11.70;99.90
7216;DHT22;3649;48.798;9.798;2023-02-16T17:53:42;12.00;99.90
7216;DHT22;3649;48.798;9.798;2023-02-16T17:56:11;11.70;99.90
7216;DHT22;3649;48.798;9.798;2023-02-16T17:58:39;11.70;99.90
7216;DHT22;3649;48.798;9.798;2023-02-16T18:01:08;11.80;99.90
7216;DHT22;3649;48.798;9.798;2023-02-16T18:03:35;11.70;99.90
7216;DHT22;3649;48.798;9.798;2023-02-16T18:06:03;11.60;99.90
7216;DHT22;3649;48.798;9.798;2023-02-16T18:08:30;11.60;99.90
7216;DHT22;3649;48.798;9.798;2023-02-16T18:10:57;11.70;99.90
7216;DHT22;3649;48.798;9.798;2023-02-16T18:13:28;11.70;99.90
7216;DHT22;3649;48.798;9.798;2023-02-16T18:15:57;12.30;99.90
7216;DHT22;3649;48.798;9.798;2023-02-16T18:18:24;11.70;99.90
7216;DHT22;3649;48.798;9.798;2023-02-16T18:20:51;11.60;99.90
7216;DHT22;3649;48.798;9.798;2023-02-16T18:23:18;11.60;99.90
7216;DHT22;3649;48.798;9.798;2023-02-16T18:25:45;11.60;99.90
7216;DHT22;3649;48.798;9.798;2023-02-16T18:28:14;11.60;99.90
7216;DHT22;3649;48.798;9.798;2023-02-16T18:30:45;12.20;99.90
7216;DHT22;3649;48.798;9.798;2023-02-16T18:33:13;11.60;99.90
7216;DHT22;3649;48.798;9.798;2023-02-16T18:35:40;12.00;99.90
7216;DHT22;3649;48.798;9.798;2023-02-16T18:38:07;11.60;99.90
7216;DHT22;3649;48.798;9.798;2023-02-16T18:40:34;11.50;99.90
7216;DHT22;3649;48.798;9.798;2023-02-16T18:43:01;11.60;99.90
7216;DHT22;3649;48.798;9.798;2023-02-16T18:45:28;11.50;99.90
7216;DHT22;3649;48.798;9.798;2023-02-16T18:47:54;11.50;99.90
7216;DHT22;3649;48.798;9.798;2023-02-16T18:50:22;11.50;99.90
7216;DHT22;3649;48.798;9.798;2023-02-16T18:52:48;11.70;99.90
7216;DHT22;3649;48.798;9.798;2023-02-16T18:55:15;11.50;99.90
7216;DHT22;3649;48.798;9.798;2023-02-16T18:57:42;11.60;99.90
7216;DHT22;3649;48.798;9.798;2023-02-16T19:00:10;12.00;99.90
7216;DHT22;3649;48.798;9.798;2023-02-16T19:02:37;11.50;99.90
7216;DHT22;3649;48.798;9.798;2023-02-16T19:05:08;11.50;99.90
7216;DHT22;3649;48.798;9.798;2023-02-16T19:07:35;11.50;99.90
7216;DHT22;3649;48.798;9.798;2023-02-16T19:10:04;11.50;99.90
7216;DHT22;3649;48.798;9.798;2023-02-16T19:12:32;11.50;99.90